sensor_id;sensor_type;location;lat;lon;timestamp;temperature;humidity
24744;DHT22;12844;52.110;5.548;2023-06-19T00:02:14;25.80;51.10
24744;DHT22;12844;52.110;5.548;2023-06-19T00:04:39;25.70;51.10
24744;DHT22;12844;52.110;5.548;2023-06-19T00:07:05;25.70;51.10
24744;DHT22;12844;52.110;5.548;2023-06-19T00:09:32;25.70;51.10
24744;DHT22;12844;52.110;5.548;2023-06-19T00:11:58;25.80;51.10
24744;DHT22;12844;52.110;5.548;2023-06-19T00:14:25;25.70;51.10
24744;DHT22;12844;52.110;5.548;2023-06-19T00:16:51;25.80;51.10
24744;DHT22;12844;52.110;5.548;2023-06-19T00:19:17;25.70;51.00
24744;DHT22;12844;52.110;5.548;2023-06-19T00:21:43;25.80;51.10
24744;DHT22;12844;52.110;5.548;2023-06-19T00:24:09;25.70;51.00
24744;DHT22;12844;52.110;5.548;2023-06-19T00:26:35;25.70;51.10
24744;DHT22;12844;52.110;5.548;2023-06-19T00:29:01;25.80;51.10
24744;DHT22;12844;52.110;5.548;2023-06-19T00:31:26;25.70;51.00
24744;DHT22;12844;52.110;5.548;2023-06-19T00:33:53;25.70;51.00
24744;DHT22;12844;52.110;5.548;2023-06-19T00:36:18;25.80;51.10
24744;DHT22;12844;52.110;5.548;2023-06-19T00:38:46;25.70;51.00
24744;DHT22;12844;52.110;5.548;2023-06-19T00:41:12;25.70;51.00
24744;DHT22;12844;52.110;5.548;2023-06-19T00:43:37;25.80;51.10
24744;DHT22;12844;52.110;5.548;2023-06-19T00:46:03;25.80;51.10
24744;DHT22;12844;52.110;5.548;2023-06-19T00:48:30;25.80;51.10
24744;DHT22;12844;52.110;5.548;2023-06-19T00:50:57;25.70;51.00
24744;DHT22;12844;52.110;5.548;2023-06-19T00:53:23;25.70;51.00
24744;DHT22;12844;52.110;5.548;2023-06-19T00:55:51;25.80;51.10
24744;DHT22;12844;52.110;5.548;2023-06-19T00:58:18;25.70;51.00
24744;DHT22;12844;52.110;5.548;2023-06-19T01:00:44;25.70;51.00
24744;DHT22;12844;52.110;5.548;2023-06-19T01:03:09;25.70;51.00
24744;DHT22;12844;52.110;5.548;2023-06-19T01:05:35;25.70;51.00
24744;DHT22;12844;52.110;5.548;2023-06-19T01:08:09;25.70;51.00
24744;DHT22;12844;52.110;5.548;2023-06-19T01:10:42;25.70;51.00
24744;DHT22;12844;52.110;5.548;2023-06-19T01:13:37;25.70;51.10
24744;DHT22;12844;52.110;5.548;2023-06-19T01:16:04;25.70;51.00
24744;DHT22;12844;52.110;5.548;2023-06-19T01:18:31;25.70;51.70
24744;DHT22;12844;52.110;5.548;2023-06-19T01:21:15;25.70;51.10
24744;DHT22;12844;52.110;5.548;2023-06-19T01:23:42;25.80;51.00
24744;DHT22;12844;52.110;5.548;2023-06-19T01:26:08;25.70;51.10
24744;DHT22;12844;52.110;5.548;2023-06-19T01:28:35;25.70;51.00
24744;DHT22;12844;52.110;5.548;2023-06-19T01:31:05;25.70;51.10
24744;DHT22;12844;52.110;5.548;2023-06-19T01:33:32;25.70;51.10
24744;DHT22;12844;52.110;5.548;2023-06-19T01:35:58;25.70;51.10
24744;DHT22;12844;52.110;5.548;2023-06-19T01:38:28;25.70;51.10
24744;DHT22;12844;52.110;5.548;2023-06-19T01:40:55;25.70;51.10
24744;DHT22;12844;52.110;5.548;2023-06-19T01:43:23;25.70;51.10
24744;DHT22;12844;52.110;5.548;2023-06-19T01:45:48;25.70;51.10
24744;DHT22;12844;52.110;5.548;2023-06-19T01:48:14;25.70;51.10
24744;DHT22;12844;52.110;5.548;2023-06-19T01:50:44;25.70;51.00
24744;DHT22;12844;52.110;5.548;2023-06-19T01:53:10;25.70;51.00
24744;DHT22;12844;52.110;5.548;2023-06-19T01:55:36;25.70;51.00
24744;DHT22;12844;52.110;5.548;2023-06-19T01:58:01;25.70;51.00
24744;DHT22;12844;52.110;5.548;2023-06-19T02:00:27;25.70;51.00
24744;DHT22;12844;52.110;5.548;2023-06-19T02:02:52;25.70;51.00
24744;DHT22;12844;52.110;5.548;2023-06-19T02:05:18;25.70;51.00
24744;DHT22;12844;52.110;5.548;2023-06-19T02:07:44;25.70;51.00
24744;DHT22;12844;52.110;5.548;2023-06-19T02:10:09;25.70;51.00
24744;DHT22;12844;52.110;5.548;2023-06-19T02:12:35;25.70;51.00
24744;DHT22;12844;52.110;5.548;2023-06-19T02:15:01;25.70;51.00
24744;DHT22;12844;52.110;5.548;2023-06-19T02:17:26;25.60;50.90
24744;DHT22;12844;52.110;5.548;2023-06-19T02:19:52;25.60;50.90
24744;DHT22;12844;52.110;5.548;2023-06-19T02:22:18;25.60;50.90
24744;DHT22;12844;52.110;5.548;2023-06-19T02:24:43;25.70;51.00
24744;DHT22;12844;52.110;5.548;2023-06-19T02:27:10;25.60;50.90
24744;DHT22;12844;52.110;5.548;2023-06-19T02:29:35;25.70;51.20
24744;DHT22;12844;52.110;5.548;2023-06-19T02:32:01;25.60;50.90
24744;DHT22;12844;52.110;5.548;2023-06-19T02:34:27;25.60;50.90
24744;DHT22;12844;52.110;5.548;2023-06-19T02:36:53;25.60;50.90
24744;DHT22;12844;52.110;5.548;2023-06-19T02:39:18;25.60;50.90
24744;DHT22;12844;52.110;5.548;2023-06-19T02:41:44;25.60;50.90
24744;DHT22;12844;52.110;5.548;2023-06-19T02:44:12;25.60;50.90
24744;DHT22;12844;52.110;5.548;2023-06-19T02:46:37;25.60;50.90
24744;DHT22;12844;52.110;5.548;2023-06-19T02:49:03;25.60;50.90
24744;DHT22;12844;52.110;5.548;2023-06-19T02:51:29;25.60;51.00
24744;DHT22;12844;52.110;5.548;2023-06-19T02:53:54;25.60;51.60
24744;DHT22;12844;52.110;5.548;2023-06-19T02:56:20;25.60;50.90
24744;DHT22;12844;52.110;5.548;2023-06-19T02:58:45;25.60;50.90
24744;DHT22;12844;52.110;5.548;2023-06-19T03:01:11;25.60;50.90
24744;DHT22;12844;52.110;5.548;2023-06-19T03:03:37;25.60;50.90
24744;DHT22;12844;52.110;5.548;2023-06-19T03:06:06;25.60;51.00
24744;DHT22;12844;52.110;5.548;2023-06-19T03:08:36;25.60;50.90
24744;DHT22;12844;52.110;5.548;2023-06-19T03:11:02;25.60;50.90
24744;DHT22;12844;52.110;5.548;2023-06-19T03:13:47;25.60;51.00
24744;DHT22;12844;52.110;5.548;2023-06-19T03:16:13;25.60;50.90
24744;DHT22;12844;52.110;5.548;2023-06-19T03:18:40;25.60;51.00
24744;DHT22;12844;52.110;5.548;2023-06-19T03:21:06;25.60;51.00
24744;DHT22;12844;52.110;5.548;2023-06-19T03:23:32;25.60;50.90
24744;DHT22;12844;52.110;5.548;2023-06-19T03:25:57;25.60;51.00
24744;DHT22;12844;52.110;5.548;2023-06-19T03:28:23;25.60;51.00
24744;DHT22;12844;52.110;5.548;2023-06-19T03:30:50;25.60;51.00
24744;DHT22;12844;52.110;5.548;2023-06-19T03:33:15;25.60;51.00
24744;DHT22;12844;52.110;5.548;2023-06-19T03:35:41;25.60;51.00
24744;DHT22;12844;52.110;5.548;2023-06-19T03:38:06;25.60;51.00
24744;DHT22;12844;52.110;5.548;2023-06-19T03:40:32;25.60;51.00
24744;DHT22;12844;52.110;5.548;2023-06-19T03:42:57;25.60;51.00
24744;DHT22;12844;52.110;5.548;2023-06-19T03:45:23;25.60;51.00
24744;DHT22;12844;52.110;5.548;2023-06-19T03:47:48;25.60;51.70
24744;DHT22;12844;52.110;5.548;2023-06-19T03:50:14;25.60;51.00
24744;DHT22;12844;52.110;5.548;2023-06-19T03:52:39;25.60;51.00
24744;DHT22;12844;52.110;5.548;2023-06-19T03:55:05;25.60;51.00
24744;DHT22;12844;52.110;5.548;2023-06-19T03:57:31;25.60;51.00
24744;DHT22;12844;52.110;5.548;2023-06-19T03:59:56;25.60;51.00
24744;DHT22;12844;52.110;5.548;2023-06-19T04:02:22;25.60;51.00
24744;DHT22;12844;52.110;5.548;2023-06-19T04:04:48;25.60;51.00
24744;DHT22;12844;52.110;5.548;2023-06-19T04:07:13;25.60;51.00
24744;DHT22;12844;52.110;5.548;2023-06-19T04:09:39;25.60;51.00
24744;DHT22;12844;52.110;5.548;2023-06-19T04:12:05;25.60;51.00
24744;DHT22;12844;52.110;5.548;2023-06-19T04:14:31;25.60;51.00
24744;DHT22;12844;52.110;5.548;2023-06-19T04:16:56;25.60;51.10
24744;DHT22;12844;52.110;5.548;2023-06-19T04:19:22;25.60;51.00
24744;DHT22;12844;52.110;5.548;2023-06-19T04:21:47;25.60;51.10
24744;DHT22;12844;52.110;5.548;2023-06-19T04:24:13;25.60;51.10
24744;DHT22;12844;52.110;5.548;2023-06-19T04:26:38;25.50;51.00
24744;DHT22;12844;52.110;5.548;2023-06-19T04:29:04;25.60;51.20
24744;DHT22;12844;52.110;5.548;2023-06-19T04:31:31;25.60;51.20
24744;DHT22;12844;52.110;5.548;2023-06-19T04:33:57;25.50;51.10
24744;DHT22;12844;52.110;5.548;2023-06-19T04:36:23;25.60;51.20
24744;DHT22;12844;52.110;5.548;2023-06-19T04:38:48;25.50;51.10
24744;DHT22;12844;52.110;5.548;2023-06-19T04:41:16;25.60;51.20
24744;DHT22;12844;52.110;5.548;2023-06-19T04:43:42;25.60;51.20
24744;DHT22;12844;52.110;5.548;2023-06-19T04:46:07;25.50;51.10
24744;DHT22;12844;52.110;5.548;2023-06-19T04:48:33;25.50;51.10
24744;DHT22;12844;52.110;5.548;2023-06-19T04:51:01;25.50;51.10
24744;DHT22;12844;52.110;5.548;2023-06-19T04:53:27;25.50;51.10
24744;DHT22;12844;52.110;5.548;2023-06-19T04:55:53;25.60;51.20
24744;DHT22;12844;52.110;5.548;2023-06-19T04:58:20;25.50;51.20
24744;DHT22;12844;52.110;5.548;2023-06-19T05:00:47;25.50;51.10
24744;DHT22;12844;52.110;5.548;2023-06-19T05:03:16;25.50;51.10
24744;DHT22;12844;52.110;5.548;2023-06-19T05:05:43;25.50;51.10
24744;DHT22;12844;52.110;5.548;2023-06-19T05:08:09;25.50;51.10
24744;DHT22;12844;52.110;5.548;2023-06-19T05:10:34;25.50;51.10
24744;DHT22;12844;52.110;5.548;2023-06-19T05:13:00;25.50;51.20
24744;DHT22;12844;52.110;5.548;2023-06-19T05:15:27;25.50;51.10
24744;DHT22;12844;52.110;5.548;2023-06-19T05:17:53;25.50;51.10
24744;DHT22;12844;52.110;5.548;2023-06-19T05:20:19;25.50;51.10
24744;DHT22;12844;52.110;5.548;2023-06-19T05:22:44;25.50;51.10
24744;DHT22;12844;52.110;5.548;2023-06-19T05:25:10;25.60;51.20
24744;DHT22;12844;52.110;5.548;2023-06-19T05:27:36;25.50;51.20
24744;DHT22;12844;52.110;5.548;2023-06-19T05:30:01;25.50;51.20
24744;DHT22;12844;52.110;5.548;2023-06-19T05:32:27;25.50;51.10
24744;DHT22;12844;52.110;5.548;2023-06-19T05:34:53;25.50;51.10
24744;DHT22;12844;52.110;5.548;2023-06-19T05:37:18;25.50;51.10
24744;DHT22;12844;52.110;5.548;2023-06-19T05:39:44;25.50;51.20
24744;DHT22;12844;52.110;5.548;2023-06-19T05:42:09;25.50;51.20
24744;DHT22;12844;52.110;5.548;2023-06-19T05:44:35;25.50;51.10
24744;DHT22;12844;52.110;5.548;2023-06-19T05:47:00;25.50;51.20
24744;DHT22;12844;52.110;5.548;2023-06-19T05:49:26;25.50;51.20
24744;DHT22;12844;52.110;5.548;2023-06-19T05:51:51;25.50;51.20
24744;DHT22;12844;52.110;5.548;2023-06-19T05:54:17;25.50;51.20
24744;DHT22;12844;52.110;5.548;2023-06-19T05:56:43;25.50;51.20
24744;DHT22;12844;52.110;5.548;2023-06-19T05:59:09;25.50;51.20
24744;DHT22;12844;52.110;5.548;2023-06-19T06:01:34;25.50;51.10
24744;DHT22;12844;52.110;5.548;2023-06-19T06:04:00;25.50;51.10
24744;DHT22;12844;52.110;5.548;2023-06-19T06:06:27;25.50;51.10
24744;DHT22;12844;52.110;5.548;2023-06-19T06:08:53;25.50;51.10
24744;DHT22;12844;52.110;5.548;2023-06-19T06:11:20;25.50;51.20
24744;DHT22;12844;52.110;5.548;2023-06-19T06:13:45;25.50;51.10
24744;DHT22;12844;52.110;5.548;2023-06-19T06:16:11;25.50;51.10
24744;DHT22;12844;52.110;5.548;2023-06-19T06:18:36;25.50;51.10
24744;DHT22;12844;52.110;5.548;2023-06-19T06:21:02;25.50;51.10
24744;DHT22;12844;52.110;5.548;2023-06-19T06:25:54;25.50;51.10
24744;DHT22;12844;52.110;5.548;2023-06-19T06:28:26;25.50;51.10
24744;DHT22;12844;52.110;5.548;2023-06-19T06:30:52;25.50;51.10
24744;DHT22;12844;52.110;5.548;2023-06-19T06:33:17;25.50;51.10
24744;DHT22;12844;52.110;5.548;2023-06-19T06:35:43;25.50;51.10
24744;DHT22;12844;52.110;5.548;2023-06-19T06:38:09;25.50;51.10
24744;DHT22;12844;52.110;5.548;2023-06-19T06:40:35;25.50;51.10
24744;DHT22;12844;52.110;5.548;2023-06-19T06:43:00;25.50;51.10
24744;DHT22;12844;52.110;5.548;2023-06-19T06:45:26;25.50;51.10
24744;DHT22;12844;52.110;5.548;2023-06-19T06:47:51;25.50;51.00
24744;DHT22;12844;52.110;5.548;2023-06-19T06:50:17;25.50;51.00
24744;DHT22;12844;52.110;5.548;2023-06-19T06:52:42;25.60;51.00
24744;DHT22;12844;52.110;5.548;2023-06-19T06:55:08;25.50;50.90
24744;DHT22;12844;52.110;5.548;2023-06-19T06:57:35;25.60;50.90
24744;DHT22;12844;52.110;5.548;2023-06-19T07:00:00;25.50;50.80
24744;DHT22;12844;52.110;5.548;2023-06-19T07:02:26;25.60;50.80
24744;DHT22;12844;52.110;5.548;2023-06-19T07:04:51;25.60;50.80
24744;DHT22;12844;52.110;5.548;2023-06-19T07:07:17;25.60;50.80
24744;DHT22;12844;52.110;5.548;2023-06-19T07:09:43;25.60;50.80
24744;DHT22;12844;52.110;5.548;2023-06-19T07:12:08;25.60;50.70
24744;DHT22;12844;52.110;5.548;2023-06-19T07:14:34;25.60;50.80
24744;DHT22;12844;52.110;5.548;2023-06-19T07:17:00;25.60;50.70
24744;DHT22;12844;52.110;5.548;2023-06-19T07:19:25;25.60;50.70
24744;DHT22;12844;52.110;5.548;2023-06-19T07:21:51;25.60;50.70
24744;DHT22;12844;52.110;5.548;2023-06-19T07:24:17;25.60;50.70
24744;DHT22;12844;52.110;5.548;2023-06-19T07:26:42;25.60;50.70
24744;DHT22;12844;52.110;5.548;2023-06-19T07:29:08;25.60;50.70
24744;DHT22;12844;52.110;5.548;2023-06-19T07:31:33;25.60;50.60
24744;DHT22;12844;52.110;5.548;2023-06-19T07:33:59;25.60;50.60
24744;DHT22;12844;52.110;5.548;2023-06-19T07:36:24;25.60;50.60
24744;DHT22;12844;52.110;5.548;2023-06-19T07:38:52;25.60;50.60
24744;DHT22;12844;52.110;5.548;2023-06-19T07:41:18;25.60;50.60
24744;DHT22;12844;52.110;5.548;2023-06-19T07:43:43;25.60;50.60
24744;DHT22;12844;52.110;5.548;2023-06-19T07:46:10;25.60;50.60
24744;DHT22;12844;52.110;5.548;2023-06-19T07:48:35;25.60;50.60
24744;DHT22;12844;52.110;5.548;2023-06-19T07:51:01;25.60;50.60
24744;DHT22;12844;52.110;5.548;2023-06-19T07:53:26;25.60;50.60
24744;DHT22;12844;52.110;5.548;2023-06-19T07:55:52;25.60;50.50
24744;DHT22;12844;52.110;5.548;2023-06-19T07:58:17;25.60;50.60
24744;DHT22;12844;52.110;5.548;2023-06-19T08:00:43;25.60;50.60
24744;DHT22;12844;52.110;5.548;2023-06-19T08:03:09;25.60;50.50
24744;DHT22;12844;52.110;5.548;2023-06-19T08:05:34;25.60;50.50
24744;DHT22;12844;52.110;5.548;2023-06-19T08:08:00;25.70;50.60
24744;DHT22;12844;52.110;5.548;2023-06-19T08:10:27;25.60;50.50
24744;DHT22;12844;52.110;5.548;2023-06-19T08:12:52;25.60;50.50
24744;DHT22;12844;52.110;5.548;2023-06-19T08:15:18;25.60;50.50
24744;DHT22;12844;52.110;5.548;2023-06-19T08:17:43;25.60;50.50
24744;DHT22;12844;52.110;5.548;2023-06-19T08:20:09;25.60;50.50
24744;DHT22;12844;52.110;5.548;2023-06-19T08:22:35;25.60;50.50
24744;DHT22;12844;52.110;5.548;2023-06-19T08:25:01;25.70;50.60
24744;DHT22;12844;52.110;5.548;2023-06-19T08:27:27;25.60;50.50
24744;DHT22;12844;52.110;5.548;2023-06-19T08:29:52;25.70;50.60
24744;DHT22;12844;52.110;5.548;2023-06-19T08:32:18;25.60;50.50
24744;DHT22;12844;52.110;5.548;2023-06-19T08:34:43;25.70;50.50
24744;DHT22;12844;52.110;5.548;2023-06-19T08:37:09;25.70;50.60
24744;DHT22;12844;52.110;5.548;2023-06-19T08:39:35;25.70;50.60
24744;DHT22;12844;52.110;5.548;2023-06-19T08:42:08;25.70;50.50
24744;DHT22;12844;52.110;5.548;2023-06-19T08:44:35;25.70;50.50
24744;DHT22;12844;52.110;5.548;2023-06-19T08:47:02;25.70;50.50
24744;DHT22;12844;52.110;5.548;2023-06-19T08:49:34;25.70;50.50
24744;DHT22;12844;52.110;5.548;2023-06-19T08:52:00;25.70;50.40
24744;DHT22;12844;52.110;5.548;2023-06-19T08:54:26;25.70;50.50
24744;DHT22;12844;52.110;5.548;2023-06-19T08:56:51;25.80;50.50
24744;DHT22;12844;52.110;5.548;2023-06-19T08:59:19;25.70;50.40
24744;DHT22;12844;52.110;5.548;2023-06-19T09:01:53;25.70;50.50
24744;DHT22;12844;52.110;5.548;2023-06-19T09:04:20;25.80;51.00
24744;DHT22;12844;52.110;5.548;2023-06-19T09:06:59;25.70;50.50
24744;DHT22;12844;52.110;5.548;2023-06-19T09:09:26;25.80;50.50
24744;DHT22;12844;52.110;5.548;2023-06-19T09:14:34;25.80;50.50
24744;DHT22;12844;52.110;5.548;2023-06-19T09:17:11;25.80;50.50
24744;DHT22;12844;52.110;5.548;2023-06-19T09:19:37;25.80;50.60
24744;DHT22;12844;52.110;5.548;2023-06-19T09:22:04;25.80;50.50
24744;DHT22;12844;52.110;5.548;2023-06-19T09:24:38;25.80;50.40
24744;DHT22;12844;52.110;5.548;2023-06-19T09:27:15;25.80;50.40
24744;DHT22;12844;52.110;5.548;2023-06-19T09:29:46;25.80;50.30
24744;DHT22;12844;52.110;5.548;2023-06-19T09:32:24;25.80;50.40
24744;DHT22;12844;52.110;5.548;2023-06-19T09:34:51;25.80;50.40
24744;DHT22;12844;52.110;5.548;2023-06-19T09:37:25;25.80;50.40
24744;DHT22;12844;52.110;5.548;2023-06-19T09:40:02;25.80;50.40
24744;DHT22;12844;52.110;5.548;2023-06-19T09:42:38;25.80;50.40
24744;DHT22;12844;52.110;5.548;2023-06-19T09:45:06;25.80;50.40
24744;DHT22;12844;52.110;5.548;2023-06-19T09:47:38;25.80;50.40
24744;DHT22;12844;52.110;5.548;2023-06-19T09:50:05;25.80;50.30
24744;DHT22;12844;52.110;5.548;2023-06-19T09:52:32;25.80;50.30
24744;DHT22;12844;52.110;5.548;2023-06-19T09:55:02;25.80;50.30
24744;DHT22;12844;52.110;5.548;2023-06-19T09:57:28;25.80;50.30
24744;DHT22;12844;52.110;5.548;2023-06-19T09:59:56;25.80;50.30
24744;DHT22;12844;52.110;5.548;2023-06-19T10:02:26;25.90;50.40
24744;DHT22;12844;52.110;5.548;2023-06-19T10:04:54;25.90;50.40
24744;DHT22;12844;52.110;5.548;2023-06-19T10:07:22;25.80;50.30
24744;DHT22;12844;52.110;5.548;2023-06-19T10:09:59;25.80;50.30
24744;DHT22;12844;52.110;5.548;2023-06-19T10:12:44;25.90;50.40
24744;DHT22;12844;52.110;5.548;2023-06-19T10:15:17;25.90;50.30
24744;DHT22;12844;52.110;5.548;2023-06-19T10:17:59;25.80;50.30
24744;DHT22;12844;52.110;5.548;2023-06-19T10:20:31;25.80;50.30
24744;DHT22;12844;52.110;5.548;2023-06-19T10:25:24;25.80;50.30
24744;DHT22;12844;52.110;5.548;2023-06-19T10:27:52;25.80;50.30
24744;DHT22;12844;52.110;5.548;2023-06-19T10:30:19;25.90;50.30
24744;DHT22;12844;52.110;5.548;2023-06-19T10:32:45;25.90;50.20
24744;DHT22;12844;52.110;5.548;2023-06-19T10:35:15;26.00;50.20
24744;DHT22;12844;52.110;5.548;2023-06-19T10:37:42;26.00;50.10
24744;DHT22;12844;52.110;5.548;2023-06-19T10:40:08;26.00;50.10
24744;DHT22;12844;52.110;5.548;2023-06-19T10:42:39;26.00;50.10
24744;DHT22;12844;52.110;5.548;2023-06-19T10:45:07;26.00;50.10
24744;DHT22;12844;52.110;5.548;2023-06-19T10:47:34;26.00;50.00
24744;DHT22;12844;52.110;5.548;2023-06-19T10:50:00;26.00;50.10
24744;DHT22;12844;52.110;5.548;2023-06-19T10:52:28;26.00;50.10
24744;DHT22;12844;52.110;5.548;2023-06-19T10:54:54;26.10;50.10
24744;DHT22;12844;52.110;5.548;2023-06-19T10:57:29;26.10;50.10
24744;DHT22;12844;52.110;5.548;2023-06-19T10:59:56;26.10;50.00
24744;DHT22;12844;52.110;5.548;2023-06-19T11:02:22;26.10;50.00
24744;DHT22;12844;52.110;5.548;2023-06-19T11:04:48;26.10;50.10
24744;DHT22;12844;52.110;5.548;2023-06-19T11:07:14;26.10;50.10
24744;DHT22;12844;52.110;5.548;2023-06-19T11:09:39;26.10;50.10
24744;DHT22;12844;52.110;5.548;2023-06-19T11:12:05;26.10;50.10
24744;DHT22;12844;52.110;5.548;2023-06-19T11:14:34;26.10;50.10
24744;DHT22;12844;52.110;5.548;2023-06-19T11:17:08;26.10;50.10
24744;DHT22;12844;52.110;5.548;2023-06-19T11:19:35;26.20;50.10
24744;DHT22;12844;52.110;5.548;2023-06-19T11:22:02;26.20;50.20
24744;DHT22;12844;52.110;5.548;2023-06-19T11:24:29;26.20;50.10
24744;DHT22;12844;52.110;5.548;2023-06-19T11:26:56;26.20;50.00
24744;DHT22;12844;52.110;5.548;2023-06-19T11:29:29;26.20;50.10
24744;DHT22;12844;52.110;5.548;2023-06-19T11:32:09;26.20;50.00
24744;DHT22;12844;52.110;5.548;2023-06-19T11:34:36;26.20;50.10
24744;DHT22;12844;52.110;5.548;2023-06-19T11:37:15;26.10;50.10
24744;DHT22;12844;52.110;5.548;2023-06-19T11:39:46;26.10;50.10
24744;DHT22;12844;52.110;5.548;2023-06-19T11:42:13;26.10;50.10
24744;DHT22;12844;52.110;5.548;2023-06-19T11:44:56;26.10;50.10
24744;DHT22;12844;52.110;5.548;2023-06-19T11:47:22;26.20;50.20
24744;DHT22;12844;52.110;5.548;2023-06-19T11:49:48;26.20;50.20
24744;DHT22;12844;52.110;5.548;2023-06-19T11:52:15;26.20;50.20
24744;DHT22;12844;52.110;5.548;2023-06-19T11:54:40;26.10;50.10
24744;DHT22;12844;52.110;5.548;2023-06-19T11:57:06;26.20;50.10
24744;DHT22;12844;52.110;5.548;2023-06-19T11:59:31;26.20;50.10
24744;DHT22;12844;52.110;5.548;2023-06-19T12:01:57;26.20;50.10
24744;DHT22;12844;52.110;5.548;2023-06-19T12:04:25;26.20;50.10
24744;DHT22;12844;52.110;5.548;2023-06-19T12:06:52;26.20;50.10
24744;DHT22;12844;52.110;5.548;2023-06-19T12:09:17;26.20;50.10
24744;DHT22;12844;52.110;5.548;2023-06-19T12:11:43;26.20;50.10
24744;DHT22;12844;52.110;5.548;2023-06-19T12:14:08;26.20;50.10
24744;DHT22;12844;52.110;5.548;2023-06-19T12:16:34;26.20;50.10
24744;DHT22;12844;52.110;5.548;2023-06-19T12:19:00;26.20;50.10
24744;DHT22;12844;52.110;5.548;2023-06-19T12:21:25;26.20;50.10
24744;DHT22;12844;52.110;5.548;2023-06-19T12:23:50;26.20;50.10
24744;DHT22;12844;52.110;5.548;2023-06-19T12:26:16;26.20;50.20
24744;DHT22;12844;52.110;5.548;2023-06-19T12:28:41;26.20;50.20
24744;DHT22;12844;52.110;5.548;2023-06-19T12:31:07;26.20;50.20
24744;DHT22;12844;52.110;5.548;2023-06-19T12:33:32;26.20;50.20
24744;DHT22;12844;52.110;5.548;2023-06-19T12:35:59;26.20;50.20
24744;DHT22;12844;52.110;5.548;2023-06-19T12:38:25;26.20;50.20
24744;DHT22;12844;52.110;5.548;2023-06-19T12:40:51;26.20;50.20
24744;DHT22;12844;52.110;5.548;2023-06-19T12:43:17;26.20;50.20
24744;DHT22;12844;52.110;5.548;2023-06-19T12:45:42;26.20;50.20
24744;DHT22;12844;52.110;5.548;2023-06-19T12:48:10;26.20;50.30
24744;DHT22;12844;52.110;5.548;2023-06-19T12:50:36;26.30;50.30
24744;DHT22;12844;52.110;5.548;2023-06-19T12:53:02;26.20;50.20
24744;DHT22;12844;52.110;5.548;2023-06-19T12:55:27;26.20;50.30
24744;DHT22;12844;52.110;5.548;2023-06-19T12:57:53;26.20;50.30
24744;DHT22;12844;52.110;5.548;2023-06-19T13:00:19;26.20;50.30
24744;DHT22;12844;52.110;5.548;2023-06-19T13:02:44;26.20;50.30
24744;DHT22;12844;52.110;5.548;2023-06-19T13:05:12;26.20;50.30
24744;DHT22;12844;52.110;5.548;2023-06-19T13:07:37;26.20;50.30
24744;DHT22;12844;52.110;5.548;2023-06-19T13:10:03;26.20;50.30
24744;DHT22;12844;52.110;5.548;2023-06-19T13:12:31;26.20;50.40
24744;DHT22;12844;52.110;5.548;2023-06-19T13:14:57;26.20;50.30
24744;DHT22;12844;52.110;5.548;2023-06-19T13:17:22;26.20;50.40
24744;DHT22;12844;52.110;5.548;2023-06-19T13:19:48;26.20;50.40
24744;DHT22;12844;52.110;5.548;2023-06-19T13:22:13;26.20;50.40
24744;DHT22;12844;52.110;5.548;2023-06-19T13:24:39;26.30;50.50
24744;DHT22;12844;52.110;5.548;2023-06-19T13:27:04;26.20;50.40
24744;DHT22;12844;52.110;5.548;2023-06-19T13:29:30;26.30;50.50
24744;DHT22;12844;52.110;5.548;2023-06-19T13:31:55;26.20;50.50
24744;DHT22;12844;52.110;5.548;2023-06-19T13:34:21;26.20;50.50
24744;DHT22;12844;52.110;5.548;2023-06-19T13:36:48;26.20;50.50
24744;DHT22;12844;52.110;5.548;2023-06-19T13:39:13;26.30;50.60
24744;DHT22;12844;52.110;5.548;2023-06-19T13:41:39;26.20;50.50
24744;DHT22;12844;52.110;5.548;2023-06-19T13:44:05;26.20;50.50
24744;DHT22;12844;52.110;5.548;2023-06-19T13:46:30;26.30;50.60
24744;DHT22;12844;52.110;5.548;2023-06-19T13:48:57;26.20;50.60
24744;DHT22;12844;52.110;5.548;2023-06-19T13:51:23;26.20;50.60
24744;DHT22;12844;52.110;5.548;2023-06-19T13:53:50;26.20;50.60
24744;DHT22;12844;52.110;5.548;2023-06-19T13:56:16;26.20;50.70
24744;DHT22;12844;52.110;5.548;2023-06-19T13:58:41;26.20;50.70
24744;DHT22;12844;52.110;5.548;2023-06-19T14:01:08;26.20;50.70
24744;DHT22;12844;52.110;5.548;2023-06-19T14:03:35;26.20;50.70
24744;DHT22;12844;52.110;5.548;2023-06-19T14:06:00;26.20;50.70
24744;DHT22;12844;52.110;5.548;2023-06-19T14:08:26;26.20;50.70
24744;DHT22;12844;52.110;5.548;2023-06-19T14:10:51;26.20;50.70
24744;DHT22;12844;52.110;5.548;2023-06-19T14:13:17;26.20;50.80
24744;DHT22;12844;52.110;5.548;2023-06-19T14:15:42;26.20;50.80
24744;DHT22;12844;52.110;5.548;2023-06-19T14:18:08;26.20;50.80
24744;DHT22;12844;52.110;5.548;2023-06-19T14:20:34;26.20;50.80
24744;DHT22;12844;52.110;5.548;2023-06-19T14:22:59;26.20;50.80
24744;DHT22;12844;52.110;5.548;2023-06-19T14:25:25;26.20;50.90
24744;DHT22;12844;52.110;5.548;2023-06-19T14:27:50;26.20;50.90
24744;DHT22;12844;52.110;5.548;2023-06-19T14:30:16;26.20;50.90
24744;DHT22;12844;52.110;5.548;2023-06-19T14:32:41;26.20;50.90
24744;DHT22;12844;52.110;5.548;2023-06-19T14:35:07;26.20;50.90
24744;DHT22;12844;52.110;5.548;2023-06-19T14:37:33;26.20;50.90
24744;DHT22;12844;52.110;5.548;2023-06-19T14:39:58;26.20;50.90
24744;DHT22;12844;52.110;5.548;2023-06-19T14:42:24;26.20;50.80
24744;DHT22;12844;52.110;5.548;2023-06-19T14:44:50;26.30;50.90
24744;DHT22;12844;52.110;5.548;2023-06-19T14:47:15;26.30;50.90
24744;DHT22;12844;52.110;5.548;2023-06-19T14:49:41;26.30;51.00
24744;DHT22;12844;52.110;5.548;2023-06-19T14:52:07;26.30;50.90
24744;DHT22;12844;52.110;5.548;2023-06-19T14:54:32;26.20;51.00
24744;DHT22;12844;52.110;5.548;2023-06-19T14:56:58;26.30;50.80
24744;DHT22;12844;52.110;5.548;2023-06-19T14:59:24;26.30;50.10
24744;DHT22;12844;52.110;5.548;2023-06-19T15:01:50;26.30;50.20
24744;DHT22;12844;52.110;5.548;2023-06-19T15:04:15;26.30;50.60
24744;DHT22;12844;52.110;5.548;2023-06-19T15:06:41;26.40;50.70
24744;DHT22;12844;52.110;5.548;2023-06-19T15:09:07;26.40;50.80
24744;DHT22;12844;52.110;5.548;2023-06-19T15:11:33;26.30;50.80
24744;DHT22;12844;52.110;5.548;2023-06-19T15:13:59;26.40;50.90
24744;DHT22;12844;52.110;5.548;2023-06-19T15:16:25;26.40;50.80
24744;DHT22;12844;52.110;5.548;2023-06-19T15:18:51;26.40;50.80
24744;DHT22;12844;52.110;5.548;2023-06-19T15:21:17;26.40;50.80
24744;DHT22;12844;52.110;5.548;2023-06-19T15:23:42;26.40;50.80
24744;DHT22;12844;52.110;5.548;2023-06-19T15:26:08;26.40;50.70
24744;DHT22;12844;52.110;5.548;2023-06-19T15:28:34;26.50;50.90
24744;DHT22;12844;52.110;5.548;2023-06-19T15:31:01;26.50;51.10
24744;DHT22;12844;52.110;5.548;2023-06-19T15:33:26;26.50;51.10
24744;DHT22;12844;52.110;5.548;2023-06-19T15:35:52;26.50;51.10